sensor_id;sensor_type;location;lat;lon;timestamp;temperature;humidity
17986;DHT22;9118;48.122;11.546;2023-07-08T00:00:13;22.40;97.80
17986;DHT22;9118;48.122;11.546;2023-07-08T00:05:09;22.10;97.30
17986;DHT22;9118;48.122;11.546;2023-07-08T00:07:39;21.90;98.00
17986;DHT22;9118;48.122;11.546;2023-07-08T00:10:13;21.90;95.80
17986;DHT22;9118;48.122;11.546;2023-07-08T00:15:09;21.80;98.40
17986;DHT22;9118;48.122;11.546;2023-07-08T00:20:13;21.80;98.50
17986;DHT22;9118;48.122;11.546;2023-07-08T00:22:42;21.60;98.60
17986;DHT22;9118;48.122;11.546;2023-07-08T00:30:25;21.20;96.90
17986;DHT22;9118;48.122;11.546;2023-07-08T00:32:53;21.60;98.40
17986;DHT22;9118;48.122;11.546;2023-07-08T00:35:28;21.60;99.60
17986;DHT22;9118;48.122;11.546;2023-07-08T00:37:58;21.60;99.60
17986;DHT22;9118;48.122;11.546;2023-07-08T00:45:32;21.50;97.20
17986;DHT22;9118;48.122;11.546;2023-07-08T00:48:07;21.50;99.50
17986;DHT22;9118;48.122;11.546;2023-07-08T00:53:27;21.60;96.80
17986;DHT22;9118;48.122;11.546;2023-07-08T00:55:57;21.70;99.50
17986;DHT22;9118;48.122;11.546;2023-07-08T00:58:26;21.60;99.50
17986;DHT22;9118;48.122;11.546;2023-07-08T01:00:55;21.50;99.60
17986;DHT22;9118;48.122;11.546;2023-07-08T01:03:24;21.40;99.60
17986;DHT22;9118;48.122;11.546;2023-07-08T01:05:55;21.40;99.80
17986;DHT22;9118;48.122;11.546;2023-07-08T01:08:27;21.40;99.90
17986;DHT22;9118;48.122;11.546;2023-07-08T01:11:00;21.30;99.90
17986;DHT22;9118;48.122;11.546;2023-07-08T01:13:30;21.20;99.90
17986;DHT22;9118;48.122;11.546;2023-07-08T01:23:24;21.20;97.40
17986;DHT22;9118;48.122;11.546;2023-07-08T01:25:51;21.30;99.90
17986;DHT22;9118;48.122;11.546;2023-07-08T01:28:18;21.30;99.90
17986;DHT22;9118;48.122;11.546;2023-07-08T01:30:46;21.30;99.90
17986;DHT22;9118;48.122;11.546;2023-07-08T01:33:17;21.10;99.90
17986;DHT22;9118;48.122;11.546;2023-07-08T01:35:45;21.30;99.90
17986;DHT22;9118;48.122;11.546;2023-07-08T01:38:17;21.10;99.90
17986;DHT22;9118;48.122;11.546;2023-07-08T01:40:54;21.10;98.60
17986;DHT22;9118;48.122;11.546;2023-07-08T01:45:51;21.00;99.90
17986;DHT22;9118;48.122;11.546;2023-07-08T01:48:20;21.00;99.90
17986;DHT22;9118;48.122;11.546;2023-07-08T01:50:51;21.10;99.90
17986;DHT22;9118;48.122;11.546;2023-07-08T01:53:30;21.00;99.90
17986;DHT22;9118;48.122;11.546;2023-07-08T01:55:58;21.00;99.90
17986;DHT22;9118;48.122;11.546;2023-07-08T01:58:26;21.00;99.90
17986;DHT22;9118;48.122;11.546;2023-07-08T02:10:43;20.80;99.90
17986;DHT22;9118;48.122;11.546;2023-07-08T02:13:12;21.20;99.90
17986;DHT22;9118;48.122;11.546;2023-07-08T02:25:29;20.60;99.90
17986;DHT22;9118;48.122;11.546;2023-07-08T02:27:56;20.60;99.90
17986;DHT22;9118;48.122;11.546;2023-07-08T02:30:25;20.70;99.90
17986;DHT22;9118;48.122;11.546;2023-07-08T02:35:24;20.60;99.90
17986;DHT22;9118;48.122;11.546;2023-07-08T02:40:21;20.60;99.90
17986;DHT22;9118;48.122;11.546;2023-07-08T02:42:48;20.60;99.90
17986;DHT22;9118;48.122;11.546;2023-07-08T02:45:16;20.30;99.90
17986;DHT22;9118;48.122;11.546;2023-07-08T02:47:46;20.70;99.90
17986;DHT22;9118;48.122;11.546;2023-07-08T02:55:08;20.50;99.90
17986;DHT22;9118;48.122;11.546;2023-07-08T03:05:00;20.40;99.90
17986;DHT22;9118;48.122;11.546;2023-07-08T03:22:17;20.40;99.90
17986;DHT22;9118;48.122;11.546;2023-07-08T03:32:09;20.40;99.90
17986;DHT22;9118;48.122;11.546;2023-07-08T03:39:34;20.40;99.90
17986;DHT22;9118;48.122;11.546;2023-07-08T03:42:01;20.40;99.90
17986;DHT22;9118;48.122;11.546;2023-07-08T03:51:53;20.40;99.90
17986;DHT22;9118;48.122;11.546;2023-07-08T03:54:22;20.40;99.90
17986;DHT22;9118;48.122;11.546;2023-07-08T03:56:51;20.10;99.90
17986;DHT22;9118;48.122;11.546;2023-07-08T04:04:14;19.40;99.90
17986;DHT22;9118;48.122;11.546;2023-07-08T04:14:07;19.10;99.90
17986;DHT22;9118;48.122;11.546;2023-07-08T04:16:42;19.20;99.90
17986;DHT22;9118;48.122;11.546;2023-07-08T04:19:11;19.20;99.90
17986;DHT22;9118;48.122;11.546;2023-07-08T04:24:09;19.50;99.90
17986;DHT22;9118;48.122;11.546;2023-07-08T04:29:08;19.50;99.90
17986;DHT22;9118;48.122;11.546;2023-07-08T04:31:36;19.60;99.90
17986;DHT22;9118;48.122;11.546;2023-07-08T04:36:32;19.60;99.90
17986;DHT22;9118;48.122;11.546;2023-07-08T04:41:27;19.60;99.90
17986;DHT22;9118;48.122;11.546;2023-07-08T04:43:54;19.40;99.90
17986;DHT22;9118;48.122;11.546;2023-07-08T04:46:32;19.40;99.90
17986;DHT22;9118;48.122;11.546;2023-07-08T04:49:03;19.50;99.90
17986;DHT22;9118;48.122;11.546;2023-07-08T04:51:30;19.50;99.90
17986;DHT22;9118;48.122;11.546;2023-07-08T04:56:32;19.70;99.90
17986;DHT22;9118;48.122;11.546;2023-07-08T05:01:30;19.60;99.90
17986;DHT22;9118;48.122;11.546;2023-07-08T05:03:57;19.50;99.90
17986;DHT22;9118;48.122;11.546;2023-07-08T05:06:24;19.80;99.90
17986;DHT22;9118;48.122;11.546;2023-07-08T05:08:51;19.50;99.90
17986;DHT22;9118;48.122;11.546;2023-07-08T05:11:18;20.00;99.90
17986;DHT22;9118;48.122;11.546;2023-07-08T05:13:44;19.70;99.90
17986;DHT22;9118;48.122;11.546;2023-07-08T05:18:40;19.60;99.90
17986;DHT22;9118;48.122;11.546;2023-07-08T05:26:03;19.10;99.90
17986;DHT22;9118;48.122;11.546;2023-07-08T05:30:57;19.20;99.90
17986;DHT22;9118;48.122;11.546;2023-07-08T05:33:26;19.30;99.90
17986;DHT22;9118;48.122;11.546;2023-07-08T05:35:54;19.60;99.90
17986;DHT22;9118;48.122;11.546;2023-07-08T05:40:49;20.20;99.90
17986;DHT22;9118;48.122;11.546;2023-07-08T05:43:17;20.30;99.90
17986;DHT22;9118;48.122;11.546;2023-07-08T05:48:11;20.40;99.90
17986;DHT22;9118;48.122;11.546;2023-07-08T05:50:39;20.60;99.90
17986;DHT22;9118;48.122;11.546;2023-07-08T05:53:10;20.80;99.90
17986;DHT22;9118;48.122;11.546;2023-07-08T05:55:39;20.60;99.90
17986;DHT22;9118;48.122;11.546;2023-07-08T06:00:36;21.10;99.90
17986;DHT22;9118;48.122;11.546;2023-07-08T06:10:27;21.50;99.90
17986;DHT22;9118;48.122;11.546;2023-07-08T06:20:16;21.40;99.90
17986;DHT22;9118;48.122;11.546;2023-07-08T06:25:12;21.50;99.90
17986;DHT22;9118;48.122;11.546;2023-07-08T06:27:40;21.70;99.90
17986;DHT22;9118;48.122;11.546;2023-07-08T06:30:08;21.80;99.90
17986;DHT22;9118;48.122;11.546;2023-07-08T06:35:03;21.80;99.90
17986;DHT22;9118;48.122;11.546;2023-07-08T06:37:30;22.00;99.90
17986;DHT22;9118;48.122;11.546;2023-07-08T06:39:57;22.10;99.90
17986;DHT22;9118;48.122;11.546;2023-07-08T06:44:53;21.90;99.90
17986;DHT22;9118;48.122;11.546;2023-07-08T06:47:21;21.80;99.90
17986;DHT22;9118;48.122;11.546;2023-07-08T06:52:22;21.80;99.90
17986;DHT22;9118;48.122;11.546;2023-07-08T06:59:43;22.00;99.90
17986;DHT22;9118;48.122;11.546;2023-07-08T07:02:12;21.70;99.90
17986;DHT22;9118;48.122;11.546;2023-07-08T07:14:28;22.40;99.90
17986;DHT22;9118;48.122;11.546;2023-07-08T07:19:25;22.40;99.90
17986;DHT22;9118;48.122;11.546;2023-07-08T07:21:52;22.40;99.90
17986;DHT22;9118;48.122;11.546;2023-07-08T07:29:16;22.60;99.90
17986;DHT22;9118;48.122;11.546;2023-07-08T07:34:11;22.20;99.90
17986;DHT22;9118;48.122;11.546;2023-07-08T07:36:41;22.60;99.90
17986;DHT22;9118;48.122;11.546;2023-07-08T07:39:08;22.90;99.90
17986;DHT22;9118;48.122;11.546;2023-07-08T07:48:56;22.70;99.90
17986;DHT22;9118;48.122;11.546;2023-07-08T07:53:53;22.90;99.90
17986;DHT22;9118;48.122;11.546;2023-07-08T08:08:36;22.70;99.90
17986;DHT22;9118;48.122;11.546;2023-07-08T08:11:04;22.70;99.90
17986;DHT22;9118;48.122;11.546;2023-07-08T08:13:31;22.50;99.90
17986;DHT22;9118;48.122;11.546;2023-07-08T08:18:26;22.90;99.90
17986;DHT22;9118;48.122;11.546;2023-07-08T08:28:16;22.70;99.90
17986;DHT22;9118;48.122;11.546;2023-07-08T08:30:47;22.90;99.90
17986;DHT22;9118;48.122;11.546;2023-07-08T08:33:13;23.20;99.90
17986;DHT22;9118;48.122;11.546;2023-07-08T08:35:42;22.90;99.90
17986;DHT22;9118;48.122;11.546;2023-07-08T08:40:36;23.70;99.90
17986;DHT22;9118;48.122;11.546;2023-07-08T08:43:09;22.80;99.90
17986;DHT22;9118;48.122;11.546;2023-07-08T08:45:43;23.00;99.90
17986;DHT22;9118;48.122;11.546;2023-07-08T08:48:15;23.00;99.90
17986;DHT22;9118;48.122;11.546;2023-07-08T08:50:51;22.80;99.90
17986;DHT22;9118;48.122;11.546;2023-07-08T08:53:20;22.90;99.90
17986;DHT22;9118;48.122;11.546;2023-07-08T08:55:51;22.90;99.90
17986;DHT22;9118;48.122;11.546;2023-07-08T08:58:30;23.00;99.90
17986;DHT22;9118;48.122;11.546;2023-07-08T09:01:01;23.20;99.90
17986;DHT22;9118;48.122;11.546;2023-07-08T09:03:43;23.30;99.90
17986;DHT22;9118;48.122;11.546;2023-07-08T09:06:14;23.60;99.90
17986;DHT22;9118;48.122;11.546;2023-07-08T09:08:42;23.70;99.90
17986;DHT22;9118;48.122;11.546;2023-07-08T09:11:19;23.70;99.90
17986;DHT22;9118;48.122;11.546;2023-07-08T09:13:49;23.80;99.90
17986;DHT22;9118;48.122;11.546;2023-07-08T09:16:26;23.80;99.90
17986;DHT22;9118;48.122;11.546;2023-07-08T09:18:59;24.00;99.90
17986;DHT22;9118;48.122;11.546;2023-07-08T09:21:31;24.00;99.90
17986;DHT22;9118;48.122;11.546;2023-07-08T09:24:04;24.20;99.90
17986;DHT22;9118;48.122;11.546;2023-07-08T09:26:34;24.40;99.90
17986;DHT22;9118;48.122;11.546;2023-07-08T09:29:08;24.20;99.90
17986;DHT22;9118;48.122;11.546;2023-07-08T09:31:39;24.30;99.90
17986;DHT22;9118;48.122;11.546;2023-07-08T09:34:10;24.40;99.90
17986;DHT22;9118;48.122;11.546;2023-07-08T09:36:40;24.30;99.90
17986;DHT22;9118;48.122;11.546;2023-07-08T09:39:13;24.50;99.90
17986;DHT22;9118;48.122;11.546;2023-07-08T09:41:42;24.40;99.90
17986;DHT22;9118;48.122;11.546;2023-07-08T09:44:20;24.00;99.90
17986;DHT22;9118;48.122;11.546;2023-07-08T09:46:54;24.40;99.90
17986;DHT22;9118;48.122;11.546;2023-07-08T09:49:31;24.30;99.90
17986;DHT22;9118;48.122;11.546;2023-07-08T09:51:59;24.50;99.90
17986;DHT22;9118;48.122;11.546;2023-07-08T09:57:02;24.60;99.90
17986;DHT22;9118;48.122;11.546;2023-07-08T09:59:36;24.50;99.90
17986;DHT22;9118;48.122;11.546;2023-07-08T10:05:01;24.80;99.90
17986;DHT22;9118;48.122;11.546;2023-07-08T10:07:30;25.00;99.90
17986;DHT22;9118;48.122;11.546;2023-07-08T10:12:27;24.70;99.90
17986;DHT22;9118;48.122;11.546;2023-07-08T10:14:59;24.60;99.90
17986;DHT22;9118;48.122;11.546;2023-07-08T10:17:29;24.80;99.90
17986;DHT22;9118;48.122;11.546;2023-07-08T10:22:37;24.50;99.90
17986;DHT22;9118;48.122;11.546;2023-07-08T10:25:25;24.80;99.90
17986;DHT22;9118;48.122;11.546;2023-07-08T10:28:01;24.70;99.90
17986;DHT22;9118;48.122;11.546;2023-07-08T10:30:35;24.90;99.90
17986;DHT22;9118;48.122;11.546;2023-07-08T10:33:38;24.60;99.90
17986;DHT22;9118;48.122;11.546;2023-07-08T10:36:19;25.30;99.90
17986;DHT22;9118;48.122;11.546;2023-07-08T10:39:11;25.30;99.90
17986;DHT22;9118;48.122;11.546;2023-07-08T10:41:50;25.50;99.70
17986;DHT22;9118;48.122;11.546;2023-07-08T10:44:26;25.60;99.90
17986;DHT22;9118;48.122;11.546;2023-07-08T10:47:00;25.70;99.90
17986;DHT22;9118;48.122;11.546;2023-07-08T10:52:51;25.70;99.90
17986;DHT22;9118;48.122;11.546;2023-07-08T10:55:31;26.20;99.90
17986;DHT22;9118;48.122;11.546;2023-07-08T10:58:16;26.10;99.90
17986;DHT22;9118;48.122;11.546;2023-07-08T11:00:56;26.30;99.90
17986;DHT22;9118;48.122;11.546;2023-07-08T11:03:49;26.10;99.90
17986;DHT22;9118;48.122;11.546;2023-07-08T11:06:22;25.90;99.90
17986;DHT22;9118;48.122;11.546;2023-07-08T11:08:56;25.50;99.90
17986;DHT22;9118;48.122;11.546;2023-07-08T11:11:33;26.20;99.90
17986;DHT22;9118;48.122;11.546;2023-07-08T11:14:06;26.00;99.90
17986;DHT22;9118;48.122;11.546;2023-07-08T11:16:36;26.10;99.50
17986;DHT22;9118;48.122;11.546;2023-07-08T11:19:08;26.30;99.90
17986;DHT22;9118;48.122;11.546;2023-07-08T11:21:41;26.50;99.80
17986;DHT22;9118;48.122;11.546;2023-07-08T11:24:18;26.50;99.40
17986;DHT22;9118;48.122;11.546;2023-07-08T11:26:50;26.50;99.80
17986;DHT22;9118;48.122;11.546;2023-07-08T11:29:22;26.60;99.60
17986;DHT22;9118;48.122;11.546;2023-07-08T11:31:52;26.60;99.90
17986;DHT22;9118;48.122;11.546;2023-07-08T11:34:19;26.50;99.90
17986;DHT22;9118;48.122;11.546;2023-07-08T11:36:49;26.60;99.90
17986;DHT22;9118;48.122;11.546;2023-07-08T11:39:31;26.70;99.90
17986;DHT22;9118;48.122;11.546;2023-07-08T11:42:15;26.70;99.20
17986;DHT22;9118;48.122;11.546;2023-07-08T11:44:44;26.70;99.30
17986;DHT22;9118;48.122;11.546;2023-07-08T11:47:18;26.70;99.90
17986;DHT22;9118;48.122;11.546;2023-07-08T11:49:47;26.50;99.80
17986;DHT22;9118;48.122;11.546;2023-07-08T11:52:17;26.70;99.70
17986;DHT22;9118;48.122;11.546;2023-07-08T11:54:48;26.60;99.90
17986;DHT22;9118;48.122;11.546;2023-07-08T11:57:24;27.00;99.60
17986;DHT22;9118;48.122;11.546;2023-07-08T12:00:12;27.00;99.10
17986;DHT22;9118;48.122;11.546;2023-07-08T12:02:53;27.20;98.50
17986;DHT22;9118;48.122;11.546;2023-07-08T12:05:35;27.40;98.60
17986;DHT22;9118;48.122;11.546;2023-07-08T12:08:11;27.60;98.40
17986;DHT22;9118;48.122;11.546;2023-07-08T12:10:45;27.60;97.80
17986;DHT22;9118;48.122;11.546;2023-07-08T12:13:15;27.30;97.60
17986;DHT22;9118;48.122;11.546;2023-07-08T12:15:42;27.50;98.50
17986;DHT22;9118;48.122;11.546;2023-07-08T12:18:14;27.50;98.40
17986;DHT22;9118;48.122;11.546;2023-07-08T12:20:44;27.70;98.20
17986;DHT22;9118;48.122;11.546;2023-07-08T12:23:14;28.20;97.90
17986;DHT22;9118;48.122;11.546;2023-07-08T12:25:43;28.50;97.90
17986;DHT22;9118;48.122;11.546;2023-07-08T12:28:10;28.40;97.70
17986;DHT22;9118;48.122;11.546;2023-07-08T12:30:39;28.50;97.30
17986;DHT22;9118;48.122;11.546;2023-07-08T12:33:12;28.70;97.40
17986;DHT22;9118;48.122;11.546;2023-07-08T12:35:41;29.10;97.40
17986;DHT22;9118;48.122;11.546;2023-07-08T12:38:18;29.10;96.30
17986;DHT22;9118;48.122;11.546;2023-07-08T12:40:46;29.10;95.70
17986;DHT22;9118;48.122;11.546;2023-07-08T12:43:14;29.30;95.40
17986;DHT22;9118;48.122;11.546;2023-07-08T12:45:42;29.60;95.00
17986;DHT22;9118;48.122;11.546;2023-07-08T12:48:09;29.70;94.90
17986;DHT22;9118;48.122;11.546;2023-07-08T12:50:36;29.70;94.20
17986;DHT22;9118;48.122;11.546;2023-07-08T12:53:04;30.10;93.60
17986;DHT22;9118;48.122;11.546;2023-07-08T12:55:36;29.80;92.10
17986;DHT22;9118;48.122;11.546;2023-07-08T12:58:05;30.20;92.40
17986;DHT22;9118;48.122;11.546;2023-07-08T13:00:39;30.30;92.00
17986;DHT22;9118;48.122;11.546;2023-07-08T13:03:11;30.20;91.80
17986;DHT22;9118;48.122;11.546;2023-07-08T13:05:41;31.20;91.50
17986;DHT22;9118;48.122;11.546;2023-07-08T13:08:11;30.20;91.40
17986;DHT22;9118;48.122;11.546;2023-07-08T13:10:39;30.60;91.00
17986;DHT22;9118;48.122;11.546;2023-07-08T13:13:17;30.60;91.30
17986;DHT22;9118;48.122;11.546;2023-07-08T13:15:46;30.60;89.80
17986;DHT22;9118;48.122;11.546;2023-07-08T13:18:15;30.60;90.50
17986;DHT22;9118;48.122;11.546;2023-07-08T13:20:45;31.00;91.00
17986;DHT22;9118;48.122;11.546;2023-07-08T13:23:13;31.10;90.60
17986;DHT22;9118;48.122;11.546;2023-07-08T13:25:40;30.70;91.10
17986;DHT22;9118;48.122;11.546;2023-07-08T13:28:20;30.80;90.70
17986;DHT22;9118;48.122;11.546;2023-07-08T13:30:53;31.10;90.10
17986;DHT22;9118;48.122;11.546;2023-07-08T13:33:21;31.40;90.60
17986;DHT22;9118;48.122;11.546;2023-07-08T13:35:49;31.40;90.60
17986;DHT22;9118;48.122;11.546;2023-07-08T13:38:19;31.50;90.40
17986;DHT22;9118;48.122;11.546;2023-07-08T13:40:48;31.30;90.00
17986;DHT22;9118;48.122;11.546;2023-07-08T13:43:15;31.30;90.10
17986;DHT22;9118;48.122;11.546;2023-07-08T13:45:45;31.30;90.30
17986;DHT22;9118;48.122;11.546;2023-07-08T13:48:20;31.20;89.90
17986;DHT22;9118;48.122;11.546;2023-07-08T13:50:53;30.70;89.20
17986;DHT22;9118;48.122;11.546;2023-07-08T13:53:24;31.00;90.00
17986;DHT22;9118;48.122;11.546;2023-07-08T13:55:59;31.50;89.80
17986;DHT22;9118;48.122;11.546;2023-07-08T13:58:28;32.10;89.10
17986;DHT22;9118;48.122;11.546;2023-07-08T14:00:58;32.90;87.00
17986;DHT22;9118;48.122;11.546;2023-07-08T14:03:25;34.00;84.70
17986;DHT22;9118;48.122;11.546;2023-07-08T14:05:52;34.70;83.00
17986;DHT22;9118;48.122;11.546;2023-07-08T14:08:19;35.80;81.60
17986;DHT22;9118;48.122;11.546;2023-07-08T14:10:48;37.30;79.00
17986;DHT22;9118;48.122;11.546;2023-07-08T14:13:14;38.50;77.10
17986;DHT22;9118;48.122;11.546;2023-07-08T14:18:12;38.90;69.50
17986;DHT22;9118;48.122;11.546;2023-07-08T14:20:39;36.30;74.40
17986;DHT22;9118;48.122;11.546;2023-07-08T14:23:09;34.20;77.50
17986;DHT22;9118;48.122;11.546;2023-07-08T14:25:36;32.80;78.10
17986;DHT22;9118;48.122;11.546;2023-07-08T14:30:32;31.70;76.40
17986;DHT22;9118;48.122;11.546;2023-07-08T14:32:59;31.10;83.60
17986;DHT22;9118;48.122;11.546;2023-07-08T14:35:28;31.50;84.50
17986;DHT22;9118;48.122;11.546;2023-07-08T14:37:55;31.30;84.80
17986;DHT22;9118;48.122;11.546;2023-07-08T14:40:26;31.10;85.70
17986;DHT22;9118;48.122;11.546;2023-07-08T14:42:58;31.00;86.50
17986;DHT22;9118;48.122;11.546;2023-07-08T14:45:26;31.30;86.40
17986;DHT22;9118;48.122;11.546;2023-07-08T14:47:53;31.10;85.90
17986;DHT22;9118;48.122;11.546;2023-07-08T14:52:49;30.90;80.30
17986;DHT22;9118;48.122;11.546;2023-07-08T14:57:45;30.20;86.30
17986;DHT22;9118;48.122;11.546;2023-07-08T15:00:14;30.20;86.30
17986;DHT22;9118;48.122;11.546;2023-07-08T15:02:43;30.00;87.20
17986;DHT22;9118;48.122;11.546;2023-07-08T15:05:16;30.10;87.70
17986;DHT22;9118;48.122;11.546;2023-07-08T15:07:44;29.90;87.40
17986;DHT22;9118;48.122;11.546;2023-07-08T15:10:12;29.40;87.40
17986;DHT22;9118;48.122;11.546;2023-07-08T15:12:39;29.90;87.90
17986;DHT22;9118;48.122;11.546;2023-07-08T15:15:14;30.40;86.10
17986;DHT22;9118;48.122;11.546;2023-07-08T15:17:42;30.70;87.20
17986;DHT22;9118;48.122;11.546;2023-07-08T15:20:13;32.50;82.40
17986;DHT22;9118;48.122;11.546;2023-07-08T15:22:41;32.70;81.10
17986;DHT22;9118;48.122;11.546;2023-07-08T15:25:12;33.20;84.10
17986;DHT22;9118;48.122;11.546;2023-07-08T15:27:40;32.20;84.20
17986;DHT22;9118;48.122;11.546;2023-07-08T15:30:16;31.40;84.30
17986;DHT22;9118;48.122;11.546;2023-07-08T15:32:44;31.10;85.50
17986;DHT22;9118;48.122;11.546;2023-07-08T15:35:12;30.70;87.00
17986;DHT22;9118;48.122;11.546;2023-07-08T15:37:40;30.80;86.90
17986;DHT22;9118;48.122;11.546;2023-07-08T15:40:08;30.60;86.50
17986;DHT22;9118;48.122;11.546;2023-07-08T15:42:38;30.90;87.30
17986;DHT22;9118;48.122;11.546;2023-07-08T15:45:12;30.50;86.20
17986;DHT22;9118;48.122;11.546;2023-07-08T15:47:39;30.00;88.10
17986;DHT22;9118;48.122;11.546;2023-07-08T15:50:10;30.80;91.40
17986;DHT22;9118;48.122;11.546;2023-07-08T15:52:38;30.90;86.80
17986;DHT22;9118;48.122;11.546;2023-07-08T15:55:05;31.90;90.20
17986;DHT22;9118;48.122;11.546;2023-07-08T15:57:33;30.30;86.40
17986;DHT22;9118;48.122;11.546;2023-07-08T16:00:02;30.60;88.80
17986;DHT22;9118;48.122;11.546;2023-07-08T16:02:30;30.80;87.90
17986;DHT22;9118;48.122;11.546;2023-07-08T16:05:00;30.60;89.20
17986;DHT22;9118;48.122;11.546;2023-07-08T16:07:28;30.80;90.30
17986;DHT22;9118;48.122;11.546;2023-07-08T16:09:54;31.00;91.60
17986;DHT22;9118;48.122;11.546;2023-07-08T16:12:22;30.60;91.10
17986;DHT22;9118;48.122;11.546;2023-07-08T16:14:49;30.70;91.40
17986;DHT22;9118;48.122;11.546;2023-07-08T16:17:18;30.40;90.30
17986;DHT22;9118;48.122;11.546;2023-07-08T16:19:45;30.70;91.10
17986;DHT22;9118;48.122;11.546;2023-07-08T16:24:39;31.00;86.20
17986;DHT22;9118;48.122;11.546;2023-07-08T16:29:33;31.40;86.10
17986;DHT22;9118;48.122;11.546;2023-07-08T16:32:00;32.00;88.70
17986;DHT22;9118;48.122;11.546;2023-07-08T16:34:28;31.80;90.50
17986;DHT22;9118;48.122;11.546;2023-07-08T16:36:55;32.30;90.80
17986;DHT22;9118;48.122;11.546;2023-07-08T16:39:22;31.70;89.90
17986;DHT22;9118;48.122;11.546;2023-07-08T16:44:17;31.20;85.10
17986;DHT22;9118;48.122;11.546;2023-07-08T16:46:45;31.00;89.70
17986;DHT22;9118;48.122;11.546;2023-07-08T16:49:12;31.00;91.70
17986;DHT22;9118;48.122;11.546;2023-07-08T16:51:42;31.00;91.60
17986;DHT22;9118;48.122;11.546;2023-07-08T16:54:11;30.70;92.50
17986;DHT22;9118;48.122;11.546;2023-07-08T16:56:38;30.60;92.40
17986;DHT22;9118;48.122;11.546;2023-07-08T16:59:05;30.50;92.30
17986;DHT22;9118;48.122;11.546;2023-07-08T17:01:32;30.50;92.80
17986;DHT22;9118;48.122;11.546;2023-07-08T17:03:59;29.80;91.90
17986;DHT22;9118;48.122;11.546;2023-07-08T17:06:26;30.00;92.60
17986;DHT22;9118;48.122;11.546;2023-07-08T17:08:54;29.60;91.60
17986;DHT22;9118;48.122;11.546;2023-07-08T17:13:49;29.90;88.70
17986;DHT22;9118;48.122;11.546;2023-07-08T17:16:18;30.20;91.50
17986;DHT22;9118;48.122;11.546;2023-07-08T17:18:50;30.60;92.50
17986;DHT22;9118;48.122;11.546;2023-07-08T17:21:18;30.40;93.20
17986;DHT22;9118;48.122;11.546;2023-07-08T17:23:45;30.50;92.80
17986;DHT22;9118;48.122;11.546;2023-07-08T17:26:13;32.90;90.90
17986;DHT22;9118;48.122;11.546;2023-07-08T17:28:40;36.20;87.60
17986;DHT22;9118;48.122;11.546;2023-07-08T17:31:09;35.80;87.10
17986;DHT22;9118;48.122;11.546;2023-07-08T17:33:40;34.70;89.50
17986;DHT22;9118;48.122;11.546;2023-07-08T17:36:09;33.10;88.40
17986;DHT22;9118;48.122;11.546;2023-07-08T17:38:44;32.50;90.00
17986;DHT22;9118;48.122;11.546;2023-07-08T17:41:15;31.50;90.70
17986;DHT22;9118;48.122;11.546;2023-07-08T17:43:42;31.20;92.00
17986;DHT22;9118;48.122;11.546;2023-07-08T17:46:13;30.40;92.30
17986;DHT22;9118;48.122;11.546;2023-07-08T17:48:41;30.40;92.40
17986;DHT22;9118;48.122;11.546;2023-07-08T17:51:13;29.80;92.30
17986;DHT22;9118;48.122;11.546;2023-07-08T17:53:40;29.60;92.50
17986;DHT22;9118;48.122;11.546;2023-07-08T17:56:16;29.10;92.80
17986;DHT22;9118;48.122;11.546;2023-07-08T17:58:44;29.30;93.40
17986;DHT22;9118;48.122;11.546;2023-07-08T18:01:11;28.90;93.80
17986;DHT22;9118;48.122;11.546;2023-07-08T18:06:05;28.70;91.30
17986;DHT22;9118;48.122;11.546;2023-07-08T18:08:32;28.80;94.00
17986;DHT22;9118;48.122;11.546;2023-07-08T18:10:59;28.40;93.10
17986;DHT22;9118;48.122;11.546;2023-07-08T18:13:30;28.40;93.00
17986;DHT22;9118;48.122;11.546;2023-07-08T18:16:00;28.60;93.30
17986;DHT22;9118;48.122;11.546;2023-07-08T18:20:54;28.30;91.00
17986;DHT22;9118;48.122;11.546;2023-07-08T18:23:23;28.50;93.90
17986;DHT22;9118;48.122;11.546;2023-07-08T18:25:50;28.40;94.00
17986;DHT22;9118;48.122;11.546;2023-07-08T18:28:17;28.10;93.50
17986;DHT22;9118;48.122;11.546;2023-07-08T18:33:15;28.10;93.90
17986;DHT22;9118;48.122;11.546;2023-07-08T18:35:44;28.10;93.90
17986;DHT22;9118;48.122;11.546;2023-07-08T18:38:12;28.30;94.90
17986;DHT22;9118;48.122;11.546;2023-07-08T18:40:41;28.20;95.40
17986;DHT22;9118;48.122;11.546;2023-07-08T18:43:15;28.10;96.10
17986;DHT22;9118;48.122;11.546;2023-07-08T18:45:43;28.00;96.70
17986;DHT22;9118;48.122;11.546;2023-07-08T18:48:12;27.70;95.60
17986;DHT22;9118;48.122;11.546;2023-07-08T18:50:40;28.00;95.90
17986;DHT22;9118;48.122;11.546;2023-07-08T18:53:18;27.50;95.60
17986;DHT22;9118;48.122;11.546;2023-07-08T18:58:17;26.60;93.50
17986;DHT22;9118;48.122;11.546;2023-07-08T19:00:46;27.40;97.10
17986;DHT22;9118;48.122;11.546;2023-07-08T19:03:20;27.40;97.20
17986;DHT22;9118;48.122;11.546;2023-07-08T19:08:17;27.20;94.40
17986;DHT22;9118;48.122;11.546;2023-07-08T19:13:15;26.90;96.00
17986;DHT22;9118;48.122;11.546;2023-07-08T19:15:43;26.70;96.20
17986;DHT22;9118;48.122;11.546;2023-07-08T19:18:10;26.90;96.00
17986;DHT22;9118;48.122;11.546;2023-07-08T19:20:41;27.00;95.90
17986;DHT22;9118;48.122;11.546;2023-07-08T19:23:13;26.70;96.30
17986;DHT22;9118;48.122;11.546;2023-07-08T19:30:36;26.60;96.10
17986;DHT22;9118;48.122;11.546;2023-07-08T19:33:05;26.70;96.90
17986;DHT22;9118;48.122;11.546;2023-07-08T19:35:34;26.50;96.50
17986;DHT22;9118;48.122;11.546;2023-07-08T19:43:27;26.30;95.00
17986;DHT22;9118;48.122;11.546;2023-07-08T19:50:48;26.20;95.10
17986;DHT22;9118;48.122;11.546;2023-07-08T19:58:12;26.60;96.20
17986;DHT22;9118;48.122;11.546;2023-07-08T20:00:41;26.00;98.00
17986;DHT22;9118;48.122;11.546;2023-07-08T20:03:10;25.80;98.30
17986;DHT22;9118;48.122;11.546;2023-07-08T20:08:18;25.90;96.00
17986;DHT22;9118;48.122;11.546;2023-07-08T20:10:47;26.00;99.00
17986;DHT22;9118;48.122;11.546;2023-07-08T20:13:17;25.80;98.80
17986;DHT22;9118;48.122;11.546;2023-07-08T20:15:44;25.80;99.30
17986;DHT22;9118;48.122;11.546;2023-07-08T20:18:12;25.60;99.10
17986;DHT22;9118;48.122;11.546;2023-07-08T20:23:10;25.40;99.50
17986;DHT22;9118;48.122;11.546;2023-07-08T20:25:40;25.60;99.90
17986;DHT22;9118;48.122;11.546;2023-07-08T20:33:02;25.20;98.00
17986;DHT22;9118;48.122;11.546;2023-07-08T20:35:30;25.40;99.90
17986;DHT22;9118;48.122;11.546;2023-07-08T20:40:27;24.60;99.90
17986;DHT22;9118;48.122;11.546;2023-07-08T20:42:57;25.10;99.90
17986;DHT22;9118;48.122;11.546;2023-07-08T20:45:26;25.20;99.90
17986;DHT22;9118;48.122;11.546;2023-07-08T20:50:23;25.10;99.90
17986;DHT22;9118;48.122;11.546;2023-07-08T20:52:51;25.00;99.90
17986;DHT22;9118;48.122;11.546;2023-07-08T20:55:20;25.00;99.90
17986;DHT22;9118;48.122;11.546;2023-07-08T20:57:49;25.10;99.90
17986;DHT22;9118;48.122;11.546;2023-07-08T21:00:28;25.00;99.90